Time;durP1;ratioP1;P1;durP2;ratioP2;P2;SDS_P1;SDS_P2;PMS_P1;PMS_P2;Temp;Humidity;BMP_temperature;BMP_pressure;BME280_temperature;BME280_humidity;BME280_pressure;Samples;Min_cycle;Max_cycle;Signal;HPM_P1;HPM_P2
2022/03/20 00:00:25;;;;;;;7.15;1.13;;;23.20;99.90;;;;;;5092770;28;20020;-76
2022/03/20 00:02:54;;;;;;;7.45;1.75;;;23.30;99.90;;;;;;5091362;28;20020;-75
2022/03/20 00:05:21;;;;;;;6.85;1.63;;;23.40;99.90;;;;;;5091335;28;20039;-75
2022/03/20 00:07:49;;;;;;;7.07;1.67;;;23.40;99.90;;;;;;5091291;28;20046;-75
2022/03/20 00:10:17;;;;;;;7.72;1.40;;;23.70;99.90;;;;;;5092697;28;20028;-75
2022/03/20 00:12:44;;;;;;;7.55;1.48;;;24.20;99.90;;;;;;5091233;28;20107;-75
2022/03/20 00:15:13;;;;;;;7.55;1.88;;;24.50;99.90;;;;;;5091297;28;20028;-75
2022/03/20 00:17:40;;;;;;;9.75;1.65;;;24.70;99.90;;;;;;5091124;28;20059;-75
2022/03/20 00:20:08;;;;;;;9.48;1.80;;;24.70;99.90;;;;;;5092558;28;20028;-75
2022/03/20 00:22:36;;;;;;;6.97;1.63;;;24.80;99.90;;;;;;5091142;28;20477;-75
2022/03/20 00:25:04;;;;;;;6.88;1.85;;;24.60;99.90;;;;;;5091137;28;20016;-75
2022/03/20 00:27:33;;;;;;;6.32;1.40;;;24.40;99.90;;;;;;5091083;28;20016;-75
2022/03/20 00:30:00;;;;;;;8.70;1.67;;;24.50;99.90;;;;;;5094171;28;20031;-75
2022/03/20 00:32:28;;;;;;;8.73;2.03;;;24.90;99.90;;;;;;5096630;28;20021;-75
2022/03/20 00:34:59;;;;;;;5.57;1.50;;;25.20;99.90;;;;;;5095125;28;20093;-75
2022/03/20 00:37:28;;;;;;;6.82;1.60;;;25.30;99.90;;;;;;5095173;28;20056;-75
2022/03/20 00:39:56;;;;;;;6.20;1.38;;;25.30;99.90;;;;;;5095056;28;20400;-75
2022/03/20 00:42:23;;;;;;;8.02;1.92;;;25.50;99.90;;;;;;5096319;28;20510;-76
2022/03/20 00:44:51;;;;;;;5.10;1.20;;;25.70;99.90;;;;;;5096386;28;20024;-75
2022/03/20 00:47:18;;;;;;;7.20;1.75;;;25.40;99.90;;;;;;5094890;28;20492;-76
2022/03/20 00:49:45;;;;;;;5.90;1.50;;;25.00;99.90;;;;;;5096267;28;20024;-75
2022/03/20 00:52:13;;;;;;;5.68;1.95;;;24.80;99.90;;;;;;5094820;28;20032;-76
2022/03/20 00:54:40;;;;;;;6.72;1.48;;;24.90;99.90;;;;;;5096142;28;20106;-76
2022/03/20 00:57:08;;;;;;;7.43;1.50;;;25.30;99.90;;;;;;5096235;28;20503;-76
2022/03/20 00:59:35;;;;;;;8.13;1.27;;;25.30;99.90;;;;;;5096034;28;20031;-76
2022/03/20 01:02:04;;;;;;;9.10;1.60;;;25.30;99.90;;;;;;5094742;28;20031;-76
2022/03/20 01:04:32;;;;;;;7.25;1.65;;;25.40;99.90;;;;;;5095848;28;20016;-76
2022/03/20 01:07:00;;;;;;;7.53;1.80;;;25.50;99.90;;;;;;5095972;28;20135;-76
2022/03/20 01:09:28;;;;;;;7.70;1.98;;;25.50;99.90;;;;;;5095939;28;20153;-77
2022/03/20 01:11:56;;;;;;;6.68;1.20;;;25.60;99.90;;;;;;5094561;28;20032;-76
2022/03/20 01:14:25;;;;;;;6.40;1.55;;;25.60;99.90;;;;;;5095673;28;20028;-76
2022/03/20 01:16:54;;;;;;;8.05;1.73;;;25.80;99.90;;;;;;5095660;28;20024;-76
2022/03/20 01:19:23;;;;;;;5.28;1.50;;;25.90;99.90;;;;;;5095719;28;20443;-76
2022/03/20 01:21:52;;;;;;;7.30;1.60;;;26.00;99.90;;;;;;5095795;28;20045;-76
2022/03/20 01:24:19;;;;;;;5.20;1.27;;;26.20;99.90;;;;;;5095600;28;20031;-76
2022/03/20 01:26:47;;;;;;;6.40;1.60;;;26.10;99.90;;;;;;5094339;28;20020;-76
2022/03/20 01:29:14;;;;;;;8.25;1.65;;;26.00;99.90;;;;;;5095306;28;20020;-76
2022/03/20 01:31:42;;;;;;;8.02;1.55;;;26.10;99.90;;;;;;5095582;28;20031;-76
2022/03/20 01:34:09;;;;;;;5.43;1.60;;;26.00;99.90;;;;;;5095336;28;20036;-75
2022/03/20 01:36:37;;;;;;;6.13;1.35;;;25.90;99.90;;;;;;5094135;28;20024;-76
2022/03/20 01:39:06;;;;;;;6.40;1.45;;;26.10;99.90;;;;;;5095135;28;20476;-75
2022/03/20 01:41:33;;;;;;;8.88;1.75;;;26.20;99.90;;;;;;5094899;28;20035;-78
2022/03/20 01:44:03;;;;;;;7.65;1.42;;;26.60;99.90;;;;;;5095163;28;20016;-77
2022/03/20 01:46:32;;;;;;;7.65;1.55;;;26.80;99.90;;;;;;5094215;28;20063;-80
2022/03/20 01:49:00;;;;;;;9.30;2.10;;;26.90;99.90;;;;;;5095176;28;20100;-78
2022/03/20 01:54:17;;;;;;;5.65;1.20;;;26.40;99.90;;;;;;5094288;28;20031;-79
2022/03/20 01:56:46;;;;;;;7.25;1.40;;;26.50;99.90;;;;;;5095023;28;20031;-79
2022/03/20 01:59:16;;;;;;;7.00;1.63;;;26.70;99.90;;;;;;5094994;28;20028;-79
2022/03/20 02:01:44;;;;;;;6.20;1.45;;;27.00;99.90;;;;;;5093654;28;20024;-80
2022/03/20 02:04:17;;;;;;;6.03;1.58;;;27.00;99.90;;;;;;5094741;28;20024;-79
2022/03/20 02:06:45;;;;;;;6.10;1.00;;;26.90;99.90;;;;;;5094837;28;20074;-79
2022/03/20 02:09:13;;;;;;;4.32;1.00;;;26.80;99.90;;;;;;5093468;28;20032;-77
2022/03/20 02:11:47;;;;;;;6.80;1.52;;;26.90;99.90;;;;;;5093424;28;20395;-79
2022/03/20 02:14:15;;;;;;;6.18;1.70;;;26.80;99.90;;;;;;5093430;28;20020;-79
2022/03/20 02:16:43;;;;;;;5.05;1.55;;;26.90;99.90;;;;;;5094599;28;20028;-78
2022/03/20 02:19:13;;;;;;;8.75;2.22;;;26.70;99.90;;;;;;5093134;28;20024;-78
2022/03/20 02:21:44;;;;;;;7.20;1.95;;;26.80;99.90;;;;;;5093219;28;20035;-78
2022/03/20 02:24:36;;;;;;;11.00;1.88;;;27.20;99.90;;;;;;5093279;28;20052;-79
2022/03/20 02:27:18;;;;;;;5.55;1.48;;;26.80;99.90;;;;;;5093068;28;20104;-78
2022/03/20 02:29:57;;;;;;;4.40;1.33;;;26.70;99.90;;;;;;5094410;28;20027;-79
2022/03/20 02:32:30;;;;;;;5.43;1.65;;;27.00;99.90;;;;;;5094327;28;20050;-78
2022/03/20 02:34:59;;;;;;;6.63;1.70;;;26.90;99.90;;;;;;5092813;28;20052;-79
2022/03/20 02:37:28;;;;;;;7.28;1.70;;;26.80;99.90;;;;;;5094246;28;20111;-79
2022/03/20 02:39:58;;;;;;;6.53;1.25;;;26.90;99.90;;;;;;5092802;28;20028;-79
2022/03/20 02:42:26;;;;;;;7.28;1.50;;;26.90;99.90;;;;;;5092877;28;20476;-78
2022/03/20 02:44:58;;;;;;;5.13;1.33;;;27.20;99.90;;;;;;5092681;28;20118;-78
2022/03/20 02:47:30;;;;;;;7.55;1.55;;;27.20;99.90;;;;;;5092769;28;20031;-79
2022/03/20 02:50:07;;;;;;;8.43;1.67;;;27.30;99.90;;;;;;5092912;28;20031;-79
2022/03/20 02:52:53;;;;;;;6.60;1.70;;;27.20;99.90;;;;;;5091642;28;20028;-79
2022/03/20 02:55:25;;;;;;;5.47;1.35;;;26.90;99.90;;;;;;5093927;28;20028;-78
2022/03/20 02:57:54;;;;;;;4.97;1.45;;;27.10;99.90;;;;;;5093704;28;20150;-78
2022/03/20 03:00:25;;;;;;;9.98;1.50;;;27.20;99.90;;;;;;5092661;28;20020;-79
2022/03/20 03:02:54;;;;;;;4.45;1.33;;;27.20;99.90;;;;;;5092952;28;20426;-78
2022/03/20 03:05:24;;;;;;;7.70;2.25;;;27.60;99.90;;;;;;5093645;28;20020;-78
2022/03/20 03:10:56;;;;;;;6.90;1.35;;;27.90;99.90;;;;;;5093752;28;20433;-78
2022/03/20 03:13:35;;;;;;;6.25;1.60;;;27.80;99.90;;;;;;5093499;28;20020;-78
2022/03/20 03:16:08;;;;;;;6.18;1.38;;;27.90;99.90;;;;;;5092231;28;20023;-78
2022/03/20 03:18:37;;;;;;;5.18;1.55;;;27.90;99.90;;;;;;5092140;28;20118;-78
2022/03/20 03:21:05;;;;;;;6.82;1.80;;;28.30;99.90;;;;;;5092022;28;20365;-78
2022/03/20 03:23:35;;;;;;;5.50;1.25;;;28.20;99.90;;;;;;5093352;28;20028;-77
2022/03/20 03:26:04;;;;;;;4.57;1.27;;;28.30;99.90;;;;;;5091977;28;20020;-77
2022/03/20 03:28:34;;;;;;;6.68;1.40;;;28.20;99.90;;;;;;5093011;28;20428;-78
2022/03/20 03:31:10;;;;;;;9.20;2.05;;;28.30;99.90;;;;;;5091987;28;20032;-77
2022/03/20 03:36:26;;;;;;;9.00;1.85;;;27.80;99.90;;;;;;5092468;28;20446;-77
2022/03/20 03:38:53;;;;;;;4.65;1.27;;;28.00;99.90;;;;;;5093101;28;20515;-76
2022/03/20 03:41:24;;;;;;;;;;;28.00;99.90;;;;;;5092395;28;20212;-77
2022/03/20 03:43:52;;;;;;;7.22;1.67;;;28.00;99.90;;;;;;5093182;28;19907;-77
2022/03/20 03:46:19;;;;;;;6.35;1.55;;;28.00;99.90;;;;;;5092172;28;20123;-78
2022/03/20 03:48:47;;;;;;;6.93;1.88;;;27.90;99.90;;;;;;5093133;28;20028;-77
2022/03/20 03:51:15;;;;;;;5.57;1.60;;;27.70;99.90;;;;;;5093034;28;20077;-78
2022/03/20 03:53:42;;;;;;;9.10;1.63;;;28.00;99.90;;;;;;5093097;28;20068;-77
2022/03/20 03:56:09;;;;;;;7.97;1.30;;;27.80;99.90;;;;;;5093523;28;20020;-77
2022/03/20 03:58:37;;;;;;;7.68;1.42;;;27.60;99.90;;;;;;5091603;28;20073;-78
2022/03/20 04:01:05;;;;;;;8.25;1.55;;;27.60;99.90;;;;;;5093094;28;20122;-78
2022/03/20 04:03:33;;;;;;;7.13;1.67;;;27.80;99.90;;;;;;5091421;28;20111;-78
2022/03/20 04:06:04;;;;;;;4.85;1.30;;;27.50;99.90;;;;;;5092874;28;20020;-78
2022/03/20 04:08:34;;;;;;;10.65;2.13;;;27.50;99.90;;;;;;5091553;28;20024;-79
2022/03/20 04:11:01;;;;;;;6.03;1.35;;;27.10;99.90;;;;;;5092764;28;20027;-78
2022/03/20 04:13:29;;;;;;;7.28;1.20;;;27.10;99.90;;;;;;5092648;28;20024;-77
2022/03/20 04:15:56;;;;;;;7.35;1.45;;;27.10;99.90;;;;;;5092915;28;20028;-77
2022/03/20 04:18:23;;;;;;;4.10;1.20;;;27.50;99.90;;;;;;5091050;28;20032;-76
2022/03/20 04:20:52;;;;;;;4.60;1.45;;;27.80;99.90;;;;;;5091298;28;20036;-76
2022/03/20 04:26:05;;;;;;;6.88;1.40;;;27.30;99.90;;;;;;5092295;28;20392;-76
2022/03/20 04:28:32;;;;;;;5.78;1.48;;;27.40;99.90;;;;;;5092190;28;20024;-77
2022/03/20 04:30:59;;;;;;;7.38;1.52;;;27.60;99.90;;;;;;5092131;28;20024;-77
2022/03/20 04:33:29;;;;;;;10.27;2.00;;;27.60;99.90;;;;;;5092444;28;20392;-77
2022/03/20 04:35:57;;;;;;;7.47;1.73;;;27.50;99.90;;;;;;5092596;28;20040;-77
2022/03/20 04:38:26;;;;;;;4.60;1.38;;;27.40;99.90;;;;;;5092292;28;20028;-77
2022/03/20 04:40:53;;;;;;;7.72;1.48;;;27.50;99.90;;;;;;5092543;28;20480;-77
2022/03/20 04:43:20;;;;;;;7.80;1.83;;;27.20;99.90;;;;;;5091048;28;20020;-76
2022/03/20 04:45:48;;;;;;;5.97;1.40;;;27.40;99.90;;;;;;5092787;28;20044;-77
2022/03/20 04:59:21;;;;;;;10.05;2.30;;;27.20;99.90;;;;;;5092170;28;20107;-77
2022/03/20 05:01:49;;;;;;;5.90;1.35;;;27.20;99.90;;;;;;5090784;28;20480;-77
2022/03/20 05:04:16;;;;;;;7.90;1.80;;;27.30;99.90;;;;;;5092095;28;20078;-78
2022/03/20 05:06:44;;;;;;;8.57;1.88;;;27.00;99.90;;;;;;5091107;28;20479;-79
2022/03/20 05:14:44;;;;;;;6.60;1.50;;;27.00;99.90;;;;;;5092322;28;20399;-77
2022/03/20 05:17:11;;;;;;;8.18;2.03;;;26.80;99.90;;;;;;5094352;28;20399;-78
2022/03/20 05:19:42;;;;;;;5.63;1.02;;;26.80;99.90;;;;;;5094558;28;20437;-78
2022/03/20 05:22:10;;;;;;;8.52;1.90;;;26.90;99.90;;;;;;5094686;28;20020;-78
2022/03/20 05:24:39;;;;;;;6.90;1.73;;;26.50;99.90;;;;;;5095727;28;20027;-77
2022/03/20 05:27:07;;;;;;;6.78;1.80;;;26.30;99.90;;;;;;5095818;28;20480;-78
2022/03/20 05:29:35;;;;;;;6.68;1.30;;;26.30;99.90;;;;;;5094302;28;20369;-78
2022/03/20 05:32:04;;;;;;;8.35;2.20;;;26.50;99.90;;;;;;5095670;28;20028;-78
2022/03/20 05:34:33;;;;;;;5.28;1.52;;;26.50;99.90;;;;;;5093997;28;20050;-78
2022/03/20 05:37:02;;;;;;;4.90;1.43;;;26.50;99.90;;;;;;5094423;28;20024;-78
2022/03/20 05:39:30;;;;;;;5.70;1.48;;;26.50;99.90;;;;;;5094065;28;20028;-78
2022/03/20 05:41:57;;;;;;;8.15;1.30;;;26.30;99.90;;;;;;5094077;28;20020;-77
2022/03/20 05:44:27;;;;;;;7.18;1.52;;;26.20;99.90;;;;;;5095336;28;20119;-78
2022/03/20 05:46:57;;;;;;;8.80;1.40;;;26.20;99.90;;;;;;5095275;28;20053;-78
2022/03/20 05:49:25;;;;;;;5.50;1.73;;;25.90;99.90;;;;;;5093982;28;20029;-78
2022/03/20 05:51:54;;;;;;;6.53;1.48;;;25.90;99.90;;;;;;5095378;28;20016;-78
2022/03/20 05:54:22;;;;;;;13.73;2.28;;;25.90;99.90;;;;;;5095423;28;20392;-78
2022/03/20 05:59:36;;;;;;;6.25;1.50;;;25.60;99.90;;;;;;5095125;28;20035;-78
2022/03/20 06:02:04;;;;;;;5.90;1.50;;;25.60;99.90;;;;;;5095067;28;20101;-78
2022/03/20 06:04:33;;;;;;;7.45;1.70;;;25.60;99.90;;;;;;5094821;28;20449;-78
2022/03/20 06:07:00;;;;;;;7.78;1.52;;;25.60;99.90;;;;;;5093424;28;20052;-78
2022/03/20 06:09:28;;;;;;;9.05;1.70;;;25.50;99.90;;;;;;5094909;28;20028;-78
2022/03/20 06:11:56;;;;;;;10.30;2.13;;;25.40;99.90;;;;;;5093437;28;20024;-78
2022/03/20 06:14:24;;;;;;;7.47;1.95;;;25.30;99.90;;;;;;5094771;28;20499;-79
2022/03/20 06:16:51;;;;;;;8.68;1.75;;;25.30;99.90;;;;;;5093474;28;20032;-78
2022/03/20 06:19:19;;;;;;;6.68;1.38;;;25.30;99.90;;;;;;5093333;28;20435;-78
2022/03/20 06:21:47;;;;;;;6.70;2.03;;;25.30;99.90;;;;;;5093242;28;20032;-78
2022/03/20 06:24:14;;;;;;;7.13;1.55;;;25.30;99.90;;;;;;5093264;28;20388;-79
2022/03/20 06:26:41;;;;;;;8.65;1.80;;;25.20;99.90;;;;;;5093712;28;20047;-78
2022/03/20 06:29:09;;;;;;;7.32;1.90;;;25.30;99.90;;;;;;5094008;28;20081;-78
2022/03/20 06:31:36;;;;;;;8.13;1.85;;;25.20;99.90;;;;;;5093072;28;20040;-78
2022/03/20 06:34:04;;;;;;;5.93;1.48;;;25.00;99.90;;;;;;5092928;28;20048;-78
2022/03/20 06:36:32;;;;;;;7.25;1.50;;;24.90;99.90;;;;;;5094401;28;20024;-79
2022/03/20 06:38:59;;;;;;;10.68;2.05;;;24.80;99.90;;;;;;5094226;28;20476;-78
2022/03/20 06:41:26;;;;;;;9.02;2.15;;;24.80;99.90;;;;;;5094243;28;20031;-78
2022/03/20 06:43:55;;;;;;;6.15;1.33;;;24.80;99.90;;;;;;5094322;28;20069;-78
2022/03/20 06:46:23;;;;;;;7.65;2.15;;;24.60;99.90;;;;;;5094078;28;20112;-81
2022/03/20 06:48:50;;;;;;;7.03;1.52;;;24.60;99.90;;;;;;5094144;28;20029;-78
2022/03/20 06:51:18;;;;;;;7.95;1.50;;;24.40;99.90;;;;;;5094063;28;20433;-78
2022/03/20 06:53:45;;;;;;;7.88;1.70;;;24.40;99.90;;;;;;5092653;28;20035;-78
2022/03/20 06:56:13;;;;;;;10.57;1.77;;;24.30;99.90;;;;;;5093973;28;20031;-78
2022/03/20 06:58:40;;;;;;;7.28;1.55;;;24.30;99.90;;;;;;5093810;28;20027;-78
2022/03/20 07:01:08;;;;;;;9.27;1.52;;;24.20;99.90;;;;;;5092892;28;20046;-79
2022/03/20 07:03:39;;;;;;;10.25;1.50;;;24.20;99.90;;;;;;5093817;28;20503;-80
2022/03/20 07:06:06;;;;;;;7.93;1.50;;;24.30;99.90;;;;;;5092598;28;20027;-79
2022/03/20 07:08:33;;;;;;;11.20;1.52;;;24.40;99.90;;;;;;5093950;28;20035;-81
2022/03/20 07:11:01;;;;;;;7.38;1.63;;;24.40;99.90;;;;;;5092689;28;20024;-78
2022/03/20 07:16:18;;;;;;;7.63;1.83;;;24.40;99.90;;;;;;5093752;28;20032;-77
2022/03/20 07:18:46;;;;;;;6.47;1.10;;;24.50;99.90;;;;;;5092307;28;20035;-81
2022/03/20 07:21:18;;;;;;;4.63;1.20;;;24.80;99.90;;;;;;5094138;28;20024;-79
2022/03/20 07:23:46;;;;;;;5.82;1.60;;;25.30;99.90;;;;;;5092695;28;20051;-78
2022/03/20 07:31:44;;;;;;;5.88;1.25;;;24.60;99.90;;;;;;5093926;28;20104;-80
2022/03/20 07:34:11;;;;;;;5.75;1.40;;;24.00;99.90;;;;;;5093544;28;20051;-78
2022/03/20 07:36:38;;;;;;;3.95;1.00;;;23.60;99.90;;;;;;5093585;28;20024;-78
2022/03/20 07:39:06;;;;;;;6.53;1.10;;;23.20;99.90;;;;;;5091883;28;20028;-78
2022/03/20 07:41:33;;;;;;;9.13;1.67;;;23.00;99.90;;;;;;5092078;28;20541;-77
2022/03/20 07:44:01;;;;;;;4.75;1.60;;;22.70;99.90;;;;;;5093540;28;20013;-78
2022/03/20 07:46:28;;;;;;;7.55;1.25;;;22.60;99.90;;;;;;5091986;28;20468;-80
2022/03/20 07:48:56;;;;;;;7.72;1.90;;;22.60;99.90;;;;;;5092946;28;20387;-79
2022/03/20 07:51:23;;;;;;;7.80;2.13;;;22.50;99.90;;;;;;5075084;28;20575;-79
2022/03/20 07:53:51;;;;;;;6.45;1.80;;;22.30;99.90;;;;;;5092982;28;20099;-80
2022/03/20 07:56:21;;;;;;;6.03;1.30;;;22.20;99.90;;;;;;5091600;28;20389;-80
2022/03/20 07:58:48;;;;;;;8.80;1.63;;;22.10;99.90;;;;;;5092970;28;20534;-78
2022/03/20 08:01:16;;;;;;;7.40;1.52;;;21.90;99.90;;;;;;5092935;28;20101;-79
2022/03/20 08:03:43;;;;;;;6.88;1.80;;;21.80;99.90;;;;;;5092671;28;20543;-79
2022/03/20 08:06:11;;;;;;;5.03;1.30;;;21.80;99.90;;;;;;5091449;28;20016;-79
2022/03/20 08:08:43;;;;;;;7.60;1.42;;;21.80;99.90;;;;;;5091549;28;20024;-79
2022/03/20 08:11:10;;;;;;;6.55;1.42;;;21.70;99.90;;;;;;5092899;28;20032;-79
2022/03/20 08:13:37;;;;;;;7.95;2.30;;;21.60;99.90;;;;;;5091359;28;20024;-79
2022/03/20 08:16:05;;;;;;;8.00;2.08;;;21.50;99.90;;;;;;5091268;28;20063;-79
2022/03/20 08:18:32;;;;;;;7.95;2.25;;;21.50;99.90;;;;;;5092498;28;20043;-79
2022/03/20 08:20:59;;;;;;;8.32;2.17;;;21.50;99.90;;;;;;5091246;28;20031;-79
2022/03/20 08:23:27;;;;;;;5.97;1.30;;;21.40;99.90;;;;;;5092585;28;20384;-78
2022/03/20 08:25:54;;;;;;;8.77;1.92;;;21.30;99.90;;;;;;5092498;28;20028;-79
2022/03/20 08:28:21;;;;;;;8.32;1.90;;;21.30;99.90;;;;;;5091176;28;20035;-79
2022/03/20 08:30:49;;;;;;;6.82;1.80;;;21.20;99.90;;;;;;5092466;28;20027;-79
2022/03/20 08:33:17;;;;;;;8.80;1.55;;;21.10;99.90;;;;;;5091090;28;20024;-79
2022/03/20 08:35:44;;;;;;;5.88;1.40;;;21.10;99.90;;;;;;5090997;28;20135;-81
2022/03/20 08:38:13;;;;;;;5.70;1.80;;;21.10;99.90;;;;;;5093422;28;20121;-81
2022/03/20 08:40:40;;;;;;;8.95;1.52;;;21.10;99.90;;;;;;5092074;28;20052;-81
2022/03/20 08:43:09;;;;;;;6.00;1.10;;;21.10;99.90;;;;;;5092275;28;20043;-81
2022/03/20 08:45:37;;;;;;;9.20;1.70;;;21.10;99.90;;;;;;5091950;28;20430;-79
2022/03/20 08:48:05;;;;;;;7.65;1.50;;;21.30;99.90;;;;;;5092726;28;20059;-79
2022/03/20 08:50:33;;;;;;;6.05;1.45;;;21.20;99.90;;;;;;5092586;28;20036;-80
2022/03/20 08:53:01;;;;;;;6.43;1.23;;;21.30;99.90;;;;;;5096194;28;20020;-81
2022/03/20 08:55:28;;;;;;;6.10;1.60;;;21.30;99.90;;;;;;5095861;28;20110;-82
2022/03/20 08:57:55;;;;;;;5.60;1.42;;;21.30;99.90;;;;;;5096196;28;20111;-80
2022/03/20 09:00:24;;;;;;;7.65;1.75;;;21.30;99.90;;;;;;5096401;28;20107;-81
2022/03/20 09:02:52;;;;;;;4.93;1.13;;;21.30;99.90;;;;;;5094963;28;20365;-79
2022/03/20 09:05:21;;;;;;;6.97;1.33;;;21.30;99.90;;;;;;5094823;28;20028;-80
2022/03/20 09:07:50;;;;;;;6.93;1.60;;;21.30;99.90;;;;;;5094783;28;20020;-79
2022/03/20 09:10:17;;;;;;;4.32;1.23;;;21.30;99.90;;;;;;5096169;28;20488;-78
2022/03/20 09:12:45;;;;;;;7.95;1.35;;;21.30;99.90;;;;;;5094699;28;20506;-79
2022/03/20 09:15:16;;;;;;;4.40;1.00;;;21.30;99.90;;;;;;5094729;28;20024;-79
2022/03/20 09:20:34;;;;;;;6.00;1.08;;;21.20;99.90;;;;;;5096017;28;20050;-79
2022/03/20 09:23:02;;;;;;;6.07;1.13;;;21.30;99.90;;;;;;5094577;28;20020;-79
2022/03/20 09:25:31;;;;;;;4.97;1.00;;;21.30;99.90;;;;;;5094447;28;20537;-79
2022/03/20 09:28:00;;;;;;;7.07;1.38;;;21.20;99.90;;;;;;5077884;28;20024;-79
2022/03/20 09:30:27;;;;;;;6.90;1.50;;;21.20;99.90;;;;;;5095785;28;20107;-79
2022/03/20 09:32:55;;;;;;;6.93;1.35;;;21.20;99.90;;;;;;5094355;28;20028;-79
2022/03/20 09:35:22;;;;;;;5.30;1.33;;;21.10;99.90;;;;;;5094120;28;20496;-79
2022/03/20 09:37:50;;;;;;;8.52;1.92;;;21.10;99.90;;;;;;5095647;28;20020;-79
2022/03/20 09:40:21;;;;;;;6.50;1.40;;;21.20;99.90;;;;;;5094264;28;20128;-79
2022/03/20 09:42:49;;;;;;;4.38;1.20;;;21.20;99.90;;;;;;5094181;28;20032;-79
2022/03/20 09:45:18;;;;;;;5.43;1.80;;;21.20;99.90;;;;;;5095484;28;20426;-79
2022/03/20 09:47:47;;;;;;;6.65;1.17;;;21.20;99.90;;;;;;5095419;28;20027;-79
2022/03/20 09:50:15;;;;;;;4.78;0.90;;;21.20;99.90;;;;;;5095365;28;20024;-78
2022/03/20 09:52:43;;;;;;;4.95;1.10;;;21.20;99.90;;;;;;5095274;28;20410;-78
2022/03/20 09:55:12;;;;;;;7.18;1.15;;;21.20;99.90;;;;;;5095262;28;20028;-79
2022/03/20 09:57:39;;;;;;;4.05;0.90;;;21.10;99.90;;;;;;5093894;28;20051;-78
2022/03/20 10:00:15;;;;;;;7.28;1.38;;;21.10;99.90;;;;;;5093718;28;20476;-78
2022/03/20 10:02:45;;;;;;;5.05;0.95;;;21.10;99.90;;;;;;5094811;28;20032;-78
2022/03/20 10:05:21;;;;;;;5.38;1.15;;;21.00;99.90;;;;;;5093550;28;20043;-78
2022/03/20 10:07:48;;;;;;;6.25;1.13;;;21.00;99.90;;;;;;5093670;28;20042;-78
2022/03/20 10:10:25;;;;;;;4.30;0.95;;;21.00;99.90;;;;;;5093554;28;20035;-78
2022/03/20 10:12:57;;;;;;;5.97;1.05;;;21.00;99.90;;;;;;5094925;28;20034;-78
2022/03/20 10:15:34;;;;;;;4.55;1.25;;;21.00;99.90;;;;;;5095091;28;20050;-78
2022/03/20 10:18:17;;;;;;;4.72;1.10;;;20.90;99.90;;;;;;5094832;28;20408;-78
2022/03/20 10:20:49;;;;;;;6.15;1.20;;;20.80;99.90;;;;;;5093531;28;20157;-78
2022/03/20 10:23:38;;;;;;;3.60;0.90;;;20.80;99.90;;;;;;5093333;28;20016;-78
2022/03/20 10:26:08;;;;;;;5.40;0.90;;;20.70;99.90;;;;;;5094596;28;20122;-79
2022/03/20 10:28:39;;;;;;;7.18;1.00;;;20.70;99.90;;;;;;5094563;28;20431;-79
2022/03/20 10:31:09;;;;;;;4.47;1.10;;;20.60;99.90;;;;;;5094454;28;20024;-78
2022/03/20 10:33:41;;;;;;;4.93;1.00;;;20.60;99.90;;;;;;5093232;28;20028;-78
2022/03/20 10:36:20;;;;;;;4.47;0.95;;;20.50;99.90;;;;;;5094700;28;20472;-78
2022/03/20 10:38:51;;;;;;;4.78;1.02;;;20.50;99.90;;;;;;5093058;28;20024;-78
2022/03/20 10:41:21;;;;;;;3.40;0.90;;;20.40;99.90;;;;;;5093072;28;20161;-78
2022/03/20 10:43:50;;;;;;;4.18;1.13;;;20.40;99.90;;;;;;5093084;28;20017;-78
2022/03/20 10:46:24;;;;;;;6.53;0.85;;;20.40;99.90;;;;;;5094281;28;20384;-78
2022/03/20 10:48:54;;;;;;;5.15;0.80;;;20.40;99.90;;;;;;5094249;28;20024;-78
2022/03/20 10:51:42;;;;;;;3.92;0.93;;;20.40;99.90;;;;;;5094128;28;20016;-78
2022/03/20 10:54:22;;;;;;;3.13;0.88;;;20.50;99.90;;;;;;5094132;28;20020;-78
2022/03/20 10:56:59;;;;;;;3.05;0.80;;;20.50;99.90;;;;;;5094200;28;20109;-77
2022/03/20 10:59:30;;;;;;;5.55;1.08;;;20.50;99.90;;;;;;5092517;28;20115;-78
2022/03/20 11:01:58;;;;;;;5.90;1.00;;;20.50;99.90;;;;;;5092544;28;20074;-77
2022/03/20 11:04:27;;;;;;;3.15;0.60;;;20.40;99.90;;;;;;5092545;28;20093;-78
2022/03/20 11:06:59;;;;;;;5.00;0.80;;;20.40;99.90;;;;;;5092532;28;20020;-78
2022/03/20 11:09:27;;;;;;;7.28;1.10;;;20.30;99.90;;;;;;5092448;28;20032;-77
2022/03/20 11:11:59;;;;;;;6.18;1.10;;;20.20;99.90;;;;;;5092484;28;20043;-78
2022/03/20 11:14:28;;;;;;;5.65;1.33;;;20.20;99.90;;;;;;5091654;28;20115;-78
2022/03/20 11:17:03;;;;;;;4.22;1.30;;;20.20;99.90;;;;;;5093611;28;20032;-77
2022/03/20 11:19:32;;;;;;;5.03;0.82;;;20.20;99.90;;;;;;5093484;28;20023;-78
2022/03/20 11:22:12;;;;;;;5.30;0.80;;;20.20;99.90;;;;;;5093470;28;20107;-77
2022/03/20 11:24:42;;;;;;;4.68;0.95;;;20.20;99.90;;;;;;5092229;28;20031;-77
2022/03/20 11:27:12;;;;;;;8.55;1.08;;;20.20;99.90;;;;;;5092111;28;20483;-77
2022/03/20 11:29:50;;;;;;;6.82;1.23;;;20.20;99.90;;;;;;5092178;28;20393;-77
2022/03/20 11:32:19;;;;;;;4.53;0.80;;;20.20;99.90;;;;;;5092024;28;20028;-78
2022/03/20 11:34:48;;;;;;;4.53;1.05;;;20.20;99.90;;;;;;5093184;28;20054;-78
2022/03/20 11:37:16;;;;;;;6.65;0.88;;;20.20;99.90;;;;;;5092009;28;20460;-78
2022/03/20 11:40:10;;;;;;;5.15;0.80;;;20.10;99.90;;;;;;5091867;28;20035;-79
2022/03/20 11:42:38;;;;;;;6.68;1.45;;;20.00;99.90;;;;;;5093253;28;20024;-78
2022/03/20 11:45:07;;;;;;;4.07;0.70;;;20.10;99.90;;;;;;5093290;28;20024;-78
2022/03/20 11:47:42;;;;;;;6.55;1.08;;;20.10;99.90;;;;;;5093156;28;20016;-79
2022/03/20 11:50:42;;;;;;;5.40;1.02;;;20.10;99.90;;;;;;5091821;28;20027;-78
2022/03/20 11:53:10;;;;;;;6.07;1.50;;;20.20;99.90;;;;;;5090512;28;20191;-78
2022/03/20 11:55:47;;;;;;;6.00;1.10;;;20.20;99.90;;;;;;5093003;28;20178;-78
2022/03/20 11:58:21;;;;;;;4.25;0.93;;;20.20;99.90;;;;;;5091645;28;20115;-78
2022/03/20 12:01:03;;;;;;;6.35;1.20;;;20.30;99.90;;;;;;5093058;28;20016;-78
2022/03/20 12:03:48;;;;;;;4.75;1.00;;;20.10;99.90;;;;;;5091621;28;20395;-78
2022/03/20 12:06:43;;;;;;;5.80;1.50;;;20.10;99.90;;;;;;5092954;28;20012;-78
2022/03/20 12:09:38;;;;;;;8.00;1.30;;;20.00;99.90;;;;;;5092753;28;20400;-79
2022/03/20 12:12:22;;;;;;;6.10;1.05;;;20.00;99.90;;;;;;5091378;28;20035;-78
2022/03/20 12:14:56;;;;;;;4.60;0.90;;;20.00;99.90;;;;;;5091495;28;20476;-78
2022/03/20 12:17:23;;;;;;;8.13;1.20;;;19.90;99.90;;;;;;5091350;28;20488;-78
2022/03/20 12:19:55;;;;;;;7.38;1.10;;;19.90;99.90;;;;;;5092627;28;20024;-78
2022/03/20 12:22:25;;;;;;;7.38;1.65;;;19.80;99.90;;;;;;5091279;28;20024;-78
2022/03/20 12:24:54;;;;;;;5.75;0.90;;;19.80;99.90;;;;;;5092525;28;20028;-78
2022/03/20 12:27:24;;;;;;;6.57;1.60;;;19.70;99.90;;;;;;5091307;28;20034;-79
2022/03/20 12:29:57;;;;;;;5.75;0.98;;;19.70;99.90;;;;;;5092710;28;20031;-78
2022/03/20 12:32:26;;;;;;;6.78;1.30;;;19.70;99.90;;;;;;5092558;28;20480;-79
2022/03/20 12:35:05;;;;;;;7.63;1.48;;;19.50;99.90;;;;;;5092396;28;20427;-78
2022/03/20 12:37:33;;;;;;;6.18;1.00;;;19.50;99.90;;;;;;5092465;28;20107;-78
2022/03/20 12:40:12;;;;;;;7.00;1.48;;;19.50;99.90;;;;;;5091104;28;20107;-79
2022/03/20 12:42:43;;;;;;;6.57;1.03;;;19.40;99.90;;;;;;5091249;28;20028;-79
2022/03/20 12:45:17;;;;;;;5.70;1.45;;;19.40;99.90;;;;;;5091316;28;20295;-79
2022/03/20 12:47:57;;;;;;;6.10;1.40;;;19.30;99.90;;;;;;5091145;28;20031;-79
2022/03/20 12:50:32;;;;;;;6.30;1.40;;;19.30;99.90;;;;;;5092425;28;20024;-79
2022/03/20 12:53:16;;;;;;;6.88;1.30;;;19.30;99.90;;;;;;5092725;28;20031;-79
2022/03/20 12:55:49;;;;;;;6.38;1.10;;;19.20;99.90;;;;;;5091198;28;20028;-79
2022/03/20 12:58:19;;;;;;;7.78;1.40;;;19.20;99.90;;;;;;5090920;28;20062;-79
2022/03/20 13:00:47;;;;;;;5.30;1.00;;;19.20;99.90;;;;;;5092246;28;20024;-78
2022/03/20 13:03:19;;;;;;;5.88;1.17;;;19.20;99.90;;;;;;5092237;28;20107;-79
2022/03/20 13:05:59;;;;;;;6.60;1.45;;;19.10;99.90;;;;;;5090916;28;20388;-78
2022/03/20 13:08:37;;;;;;;8.57;1.67;;;19.10;99.90;;;;;;5092135;28;20044;-78
2022/03/20 13:14:08;;;;;;;9.02;1.40;;;19.20;99.90;;;;;;5092288;28;20063;-78
2022/03/20 13:16:36;;;;;;;8.05;1.20;;;19.20;99.90;;;;;;5092195;28;20130;-78
2022/03/20 13:19:03;;;;;;;8.85;1.35;;;19.20;99.90;;;;;;5090740;28;20028;-78
2022/03/20 13:21:30;;;;;;;6.03;1.33;;;19.20;99.90;;;;;;5092123;28;20020;-78
2022/03/20 13:24:00;;;;;;;5.15;1.20;;;19.20;99.90;;;;;;5090976;28;20028;-78
2022/03/20 13:26:27;;;;;;;5.50;1.80;;;19.20;99.90;;;;;;5090702;28;20457;-78
2022/03/20 13:28:57;;;;;;;5.35;1.20;;;19.20;99.90;;;;;;5091988;28;20472;-78
2022/03/20 13:31:25;;;;;;;7.07;1.52;;;19.20;99.90;;;;;;5074395;28;20517;-78
2022/03/20 13:33:57;;;;;;;5.28;1.40;;;19.10;99.90;;;;;;5091802;28;20072;-79
2022/03/20 13:36:34;;;;;;;9.63;1.58;;;19.10;99.90;;;;;;5091229;28;20034;-79
2022/03/20 13:39:07;;;;;;;6.97;1.30;;;19.00;99.90;;;;;;5094223;28;20472;-79
2022/03/20 13:41:41;;;;;;;8.35;1.48;;;19.00;99.90;;;;;;5094368;28;20107;-78
2022/03/20 13:44:11;;;;;;;8.25;1.48;;;19.00;99.90;;;;;;5094217;28;20054;-78
2022/03/20 13:46:39;;;;;;;8.43;1.77;;;19.00;99.90;;;;;;5095560;28;20099;-79